Time;durP1;ratioP1;P1;durP2;ratioP2;P2;SDS_P1;SDS_P2;PMS_P1;PMS_P2;Temp;Humidity;BMP_temperature;BMP_pressure;BME280_temperature;BME280_humidity;BME280_pressure;Samples;Min_cycle;Max_cycle;Signal;HPM_P1;HPM_P2
2022/08/13 00:02:25;;;;;;;8.38;3.40;;;21.00;96.90;;;;;;5092392;28;20039;-68
2022/08/13 00:04:59;;;;;;;8.65;3.28;;;20.90;97.10;;;;;;5091672;28;20097;-68
2022/08/13 00:07:25;;;;;;;7.63;3.35;;;20.80;98.00;;;;;;5093953;28;20087;-68
2022/08/13 00:09:53;;;;;;;3.97;3.42;;;20.80;98.20;;;;;;5093120;28;20055;-68
2022/08/13 00:15:15;;;;;;;6.40;3.13;;;20.70;98.40;;;;;;5092700;28;20123;-68
2022/08/13 00:17:45;;;;;;;10.77;3.50;;;20.60;98.90;;;;;;5092613;28;20050;-68
2022/08/13 00:20:11;;;;;;;8.70;3.38;;;20.70;98.70;;;;;;5091187;28;20067;-68
2022/08/13 00:22:37;;;;;;;6.18;3.60;;;20.60;98.70;;;;;;5091379;28;20036;-67
2022/08/13 00:25:06;;;;;;;5.68;4.05;;;20.50;99.50;;;;;;5074496;28;20040;-67
2022/08/13 00:27:32;;;;;;;6.30;3.47;;;20.50;99.00;;;;;;5095098;28;20075;-67
2022/08/13 00:29:57;;;;;;;7.13;3.80;;;20.50;99.50;;;;;;5095043;28;20097;-67
2022/08/13 00:32:29;;;;;;;8.20;3.72;;;20.50;99.50;;;;;;5093045;28;20040;-68
2022/08/13 00:34:57;;;;;;;7.85;3.60;;;20.40;99.50;;;;;;5092891;28;20040;-68
2022/08/13 00:37:25;;;;;;;9.82;3.83;;;20.40;99.80;;;;;;5092935;28;20036;-68
2022/08/13 00:39:51;;;;;;;7.30;3.88;;;20.30;99.90;;;;;;5073657;28;20043;-68
2022/08/13 00:42:22;;;;;;;7.60;3.45;;;20.30;99.90;;;;;;5092782;28;20108;-67
2022/08/13 00:44:48;;;;;;;6.32;3.80;;;20.30;99.90;;;;;;5092365;28;20058;-67
2022/08/13 00:49:59;;;;;;;10.43;4.22;;;20.10;99.90;;;;;;5092379;28;20481;-67
2022/08/13 00:52:30;;;;;;;11.23;4.03;;;20.10;99.90;;;;;;5092326;28;20442;-67
2022/08/13 00:55:00;;;;;;;8.38;3.78;;;20.10;99.90;;;;;;5092541;28;20036;-67
2022/08/13 00:57:28;;;;;;;8.38;3.53;;;20.10;99.90;;;;;;5093032;28;20126;-67
2022/08/13 00:59:55;;;;;;;5.90;3.65;;;20.00;99.90;;;;;;5092225;28;20044;-67
2022/08/13 01:02:20;;;;;;;8.25;4.30;;;20.10;99.90;;;;;;5096288;28;20051;-68
2022/08/13 01:04:47;;;;;;;8.35;3.67;;;20.00;99.90;;;;;;5096720;28;20036;-67
2022/08/13 01:07:16;;;;;;;6.07;3.40;;;20.00;99.90;;;;;;5096869;28;20480;-69
2022/08/13 01:09:42;;;;;;;10.90;3.90;;;20.00;99.90;;;;;;5095495;28;20056;-69
2022/08/13 01:12:09;;;;;;;5.85;3.53;;;19.90;99.90;;;;;;5096946;28;20036;-69
2022/08/13 01:14:36;;;;;;;6.53;3.90;;;19.90;99.90;;;;;;5096558;28;20036;-68
2022/08/13 01:17:04;;;;;;;9.93;4.03;;;19.90;99.90;;;;;;5096765;28;20036;-66
2022/08/13 01:19:31;;;;;;;8.10;3.95;;;19.80;99.90;;;;;;5096022;28;20047;-69
2022/08/13 01:21:59;;;;;;;6.00;3.30;;;19.80;99.90;;;;;;5096536;28;20040;-67
2022/08/13 01:24:25;;;;;;;10.70;4.20;;;19.80;99.90;;;;;;5096173;28;20248;-66
2022/08/13 01:26:52;;;;;;;5.57;3.72;;;19.80;99.90;;;;;;5096600;28;20044;-67
2022/08/13 01:29:18;;;;;;;8.13;4.05;;;19.70;99.90;;;;;;5095997;28;20055;-67
2022/08/13 01:31:44;;;;;;;7.85;3.70;;;19.70;99.90;;;;;;5096423;28;20357;-68
2022/08/13 01:34:12;;;;;;;7.97;3.25;;;19.70;99.90;;;;;;5097181;28;20036;-68
2022/08/13 01:36:40;;;;;;;8.05;3.70;;;19.70;99.90;;;;;;5099809;28;20032;-68
2022/08/13 01:39:05;;;;;;;7.28;3.50;;;19.60;99.90;;;;;;5097230;28;20051;-68
2022/08/13 01:41:34;;;;;;;6.38;3.50;;;19.60;99.90;;;;;;5095884;28;20048;-68
2022/08/13 01:44:04;;;;;;;6.72;3.83;;;19.60;99.90;;;;;;5077132;28;20078;-67
2022/08/13 01:52:06;;;;;;;12.43;3.15;;;19.50;99.90;;;;;;5096601;28;20056;-67
2022/08/13 01:54:34;;;;;;;11.82;3.25;;;19.50;99.90;;;;;;5095218;28;20040;-67
2022/08/13 01:57:02;;;;;;;7.35;3.28;;;19.50;99.90;;;;;;5096086;28;20036;-68
2022/08/13 01:59:29;;;;;;;7.80;2.92;;;19.40;99.90;;;;;;5095654;28;20058;-68
2022/08/13 02:01:55;;;;;;;6.97;2.83;;;19.40;99.90;;;;;;5095761;28;20040;-68
2022/08/13 02:04:21;;;;;;;5.43;3.40;;;19.40;99.90;;;;;;5095600;28;20071;-67
2022/08/13 02:06:47;;;;;;;4.82;3.40;;;19.30;99.90;;;;;;5096552;28;20580;-67
2022/08/13 02:09:13;;;;;;;5.35;3.50;;;19.40;99.90;;;;;;5094949;28;20075;-67
2022/08/13 02:11:38;;;;;;;5.28;3.53;;;19.20;99.90;;;;;;5095019;28;20047;-67
2022/08/13 02:14:05;;;;;;;3.60;3.00;;;19.30;99.90;;;;;;5095283;28;20043;-67
2022/08/13 02:16:36;;;;;;;5.13;2.80;;;19.30;99.90;;;;;;5095611;28;20103;-68
2022/08/13 02:19:04;;;;;;;10.10;3.50;;;19.30;99.90;;;;;;5095353;28;20048;-68
2022/08/13 02:21:36;;;;;;;8.27;3.13;;;19.20;99.90;;;;;;5095164;28;20036;-67
2022/08/13 02:24:03;;;;;;;7.32;3.55;;;19.20;99.90;;;;;;5094714;28;20040;-68
2022/08/13 02:26:33;;;;;;;4.72;3.08;;;19.20;99.90;;;;;;5095419;28;20035;-68
2022/08/13 02:29:00;;;;;;;5.20;3.58;;;19.10;99.90;;;;;;5095130;28;20066;-68
2022/08/13 02:31:28;;;;;;;6.13;3.15;;;19.10;99.90;;;;;;5095053;28;20036;-68
2022/08/13 02:33:54;;;;;;;6.72;3.42;;;19.10;99.90;;;;;;5094462;28;20044;-68
2022/08/13 02:36:22;;;;;;;9.20;3.30;;;19.00;99.90;;;;;;5094948;28;20043;-68
2022/08/13 02:38:59;;;;;;;5.13;3.10;;;19.10;99.90;;;;;;5094921;28;20094;-68
2022/08/13 02:41:42;;;;;;;6.43;3.35;;;19.00;99.90;;;;;;5094729;28;20655;-68
2022/08/13 02:44:11;;;;;;;7.45;3.00;;;19.00;99.90;;;;;;5097217;28;20039;-68
2022/08/13 02:46:49;;;;;;;4.55;2.75;;;19.00;99.90;;;;;;5095982;28;20432;-68
2022/08/13 02:49:15;;;;;;;4.82;2.65;;;19.00;99.90;;;;;;5094823;28;20044;-68
2022/08/13 02:51:42;;;;;;;8.20;3.28;;;18.90;99.90;;;;;;5095373;28;20039;-68
2022/08/13 02:54:08;;;;;;;7.57;3.20;;;19.00;99.90;;;;;;5094571;28;20346;-68
2022/08/13 02:56:36;;;;;;;4.57;2.88;;;18.90;99.90;;;;;;5094919;28;20043;-68
2022/08/13 02:59:03;;;;;;;7.93;3.08;;;18.90;99.90;;;;;;5094107;28;20040;-68
2022/08/13 03:01:30;;;;;;;5.47;2.95;;;18.90;99.90;;;;;;5094595;28;20047;-68
2022/08/13 03:03:56;;;;;;;3.65;2.58;;;18.90;99.90;;;;;;5094157;28;20036;-68
2022/08/13 03:06:22;;;;;;;5.50;2.83;;;18.70;99.90;;;;;;5095046;28;20472;-68
2022/08/13 03:08:52;;;;;;;8.18;2.88;;;18.80;99.90;;;;;;5094310;28;20044;-68
2022/08/13 03:11:19;;;;;;;4.90;3.10;;;18.70;99.90;;;;;;5094725;28;20036;-68
2022/08/13 03:14:01;;;;;;;4.45;2.85;;;18.80;99.90;;;;;;5075610;28;20042;-68
2022/08/13 03:16:27;;;;;;;4.50;2.85;;;18.70;99.90;;;;;;5094409;28;20067;-68
2022/08/13 03:18:54;;;;;;;5.07;3.08;;;18.70;99.90;;;;;;5093823;28;20082;-68
2022/08/13 03:21:31;;;;;;;5.75;3.00;;;18.70;99.90;;;;;;5094261;28;20032;-68
2022/08/13 03:23:56;;;;;;;3.50;2.58;;;18.70;99.90;;;;;;5093659;28;20058;-67
2022/08/13 03:26:22;;;;;;;4.28;3.03;;;18.60;99.90;;;;;;5094317;28;20352;-67
2022/08/13 03:28:51;;;;;;;3.95;2.85;;;18.60;99.90;;;;;;5093787;28;20055;-67
2022/08/13 03:31:20;;;;;;;8.43;2.80;;;18.50;99.90;;;;;;5094177;28;20043;-67
2022/08/13 03:33:47;;;;;;;4.22;2.67;;;18.60;99.90;;;;;;5093516;28;20077;-67
2022/08/13 03:36:13;;;;;;;3.63;2.75;;;18.50;99.90;;;;;;5094067;28;20040;-67
2022/08/13 03:38:39;;;;;;;6.88;2.97;;;18.40;99.90;;;;;;5093303;28;20056;-67
2022/08/13 03:41:11;;;;;;;6.25;3.20;;;18.40;99.90;;;;;;5093911;28;20150;-67
2022/08/13 03:43:42;;;;;;;4.60;3.00;;;18.40;99.90;;;;;;5093252;28;20496;-67
2022/08/13 03:46:08;;;;;;;8.18;3.03;;;18.40;99.90;;;;;;5092665;28;20036;-67
2022/08/13 03:48:35;;;;;;;6.40;2.75;;;18.30;99.90;;;;;;5093518;28;20052;-68
2022/08/13 03:51:01;;;;;;;6.43;3.03;;;18.30;99.90;;;;;;5077101;28;20044;-68
2022/08/13 03:53:27;;;;;;;6.60;3.28;;;18.30;99.90;;;;;;5096071;28;20120;-68
2022/08/13 03:55:53;;;;;;;6.70;3.03;;;18.30;99.90;;;;;;5094033;28;20063;-68
2022/08/13 03:58:21;;;;;;;8.60;3.30;;;18.20;99.90;;;;;;5093566;28;20127;-68
2022/08/13 04:00:47;;;;;;;5.68;2.95;;;18.20;99.90;;;;;;5092867;28;20040;-68
2022/08/13 04:03:32;;;;;;;8.15;3.10;;;18.20;99.90;;;;;;5074839;28;20097;-68
2022/08/13 04:06:12;;;;;;;6.80;3.10;;;18.20;99.90;;;;;;5094070;28;20036;-69
2022/08/13 04:08:39;;;;;;;4.28;2.92;;;18.10;99.90;;;;;;5089653;28;20117;-67
2022/08/13 04:11:08;;;;;;;5.07;3.17;;;18.10;99.90;;;;;;5090581;28;20609;-68
2022/08/13 04:13:36;;;;;;;5.70;3.30;;;18.10;99.90;;;;;;5091462;28;20040;-67
2022/08/13 04:16:07;;;;;;;8.77;3.15;;;18.00;99.90;;;;;;5093925;28;20040;-67
2022/08/13 04:18:35;;;;;;;6.65;3.70;;;18.10;99.90;;;;;;5092697;28;20048;-67
2022/08/13 04:21:03;;;;;;;7.25;4.00;;;18.00;99.90;;;;;;5091834;28;20076;-67
2022/08/13 04:23:29;;;;;;;6.15;3.80;;;18.00;99.90;;;;;;5092562;28;20039;-67
2022/08/13 04:25:55;;;;;;;5.57;3.45;;;18.00;99.90;;;;;;5093518;28;20369;-67
2022/08/13 04:28:22;;;;;;;9.77;3.38;;;18.00;99.90;;;;;;5092642;28;20582;-68
2022/08/13 04:30:48;;;;;;;3.92;3.17;;;17.90;99.90;;;;;;5092487;28;20111;-68
2022/08/13 04:33:15;;;;;;;11.65;3.40;;;17.90;99.90;;;;;;5091005;28;20483;-67
2022/08/13 04:35:43;;;;;;;5.95;3.65;;;17.90;99.90;;;;;;5092170;28;20047;-67
2022/08/13 04:38:08;;;;;;;7.13;3.42;;;17.90;99.90;;;;;;5093013;28;20125;-67
2022/08/13 04:40:39;;;;;;;6.97;3.40;;;17.90;99.90;;;;;;5092756;28;20130;-67
2022/08/13 04:43:06;;;;;;;5.60;3.20;;;17.90;99.90;;;;;;5092763;28;20210;-67
2022/08/13 04:45:33;;;;;;;4.80;3.00;;;17.90;99.90;;;;;;5092748;28;20107;-67
2022/08/13 04:48:04;;;;;;;13.50;3.50;;;17.90;99.90;;;;;;5075105;28;20055;-69
2022/08/13 04:50:33;;;;;;;6.80;3.00;;;17.90;99.90;;;;;;5092904;28;20032;-69
2022/08/13 04:53:06;;;;;;;5.60;3.20;;;17.90;99.90;;;;;;5092774;28;20270;-68
2022/08/13 04:55:33;;;;;;;5.45;3.38;;;17.90;99.90;;;;;;5092875;28;20102;-68
2022/08/13 04:57:59;;;;;;;6.55;3.10;;;18.00;99.90;;;;;;5091194;28;20039;-68
2022/08/13 05:00:34;;;;;;;4.97;3.00;;;18.00;99.90;;;;;;5076455;28;20063;-68
2022/08/13 05:03:15;;;;;;;6.78;3.50;;;18.00;99.90;;;;;;5093003;28;20074;-68
2022/08/13 05:05:43;;;;;;;7.97;3.40;;;18.10;99.90;;;;;;5092735;28;20112;-68
2022/08/13 05:08:10;;;;;;;8.65;3.15;;;18.10;99.90;;;;;;5092849;28;20066;-68
2022/08/13 05:10:38;;;;;;;4.35;3.03;;;18.20;99.90;;;;;;5092983;28;20376;-68
2022/08/13 05:13:18;;;;;;;10.45;3.50;;;18.30;99.90;;;;;;5092258;28;20467;-69
2022/08/13 05:15:44;;;;;;;7.68;3.17;;;18.40;99.90;;;;;;5093146;28;20051;-68
2022/08/13 05:18:09;;;;;;;4.03;3.17;;;18.60;99.90;;;;;;5093162;28;20488;-68
2022/08/13 05:20:35;;;;;;;7.43;2.97;;;18.70;99.90;;;;;;5093214;28;20036;-68
2022/08/13 05:23:06;;;;;;;6.68;2.83;;;18.90;99.90;;;;;;5092310;28;20036;-68
2022/08/13 05:25:32;;;;;;;5.90;3.10;;;19.00;99.90;;;;;;5092685;28;20032;-68
2022/08/13 05:27:57;;;;;;;6.25;2.42;;;19.10;99.90;;;;;;5092454;28;20123;-68
2022/08/13 05:30:25;;;;;;;5.18;2.90;;;19.30;99.90;;;;;;5092330;28;20040;-68
2022/08/13 05:32:52;;;;;;;5.78;2.88;;;19.50;99.90;;;;;;5092066;28;20036;-68
2022/08/13 05:35:18;;;;;;;4.50;2.35;;;19.50;99.90;;;;;;5091571;28;20125;-67
2022/08/13 05:37:44;;;;;;;4.65;2.75;;;19.60;99.90;;;;;;5073402;28;20077;-67
2022/08/13 05:40:10;;;;;;;6.20;2.53;;;19.90;99.90;;;;;;5089551;28;20044;-69
2022/08/13 05:42:39;;;;;;;7.97;2.55;;;19.90;99.90;;;;;;5090403;28;20038;-69
2022/08/13 05:45:08;;;;;;;4.13;2.58;;;20.10;99.90;;;;;;5090182;28;20044;-68
2022/08/13 05:47:38;;;;;;;3.45;2.33;;;20.10;99.60;;;;;;5092527;28;20435;-68
2022/08/13 05:50:13;;;;;;;3.60;2.60;;;20.20;99.80;;;;;;5093476;28;20050;-69
2022/08/13 05:52:40;;;;;;;5.03;2.70;;;20.30;99.50;;;;;;5094508;28;20127;-69
2022/08/13 05:55:09;;;;;;;3.03;2.60;;;20.30;99.20;;;;;;5093564;28;20052;-68
2022/08/13 05:57:35;;;;;;;6.50;2.80;;;20.40;98.60;;;;;;5092262;28;20450;-68
2022/08/13 06:05:28;;;;;;;3.50;2.28;;;20.60;98.20;;;;;;5094664;28;20639;-69
2022/08/13 06:07:57;;;;;;;2.88;2.38;;;20.80;98.80;;;;;;5078429;28;20063;-69
2022/08/13 06:10:24;;;;;;;5.70;2.60;;;20.70;98.40;;;;;;5102283;28;20054;-69
2022/08/13 06:12:50;;;;;;;4.88;2.90;;;21.00;98.20;;;;;;5097317;28;20040;-69
2022/08/13 06:15:17;;;;;;;8.07;2.53;;;21.00;98.00;;;;;;5095437;28;20039;-68
2022/08/13 06:17:43;;;;;;;4.13;2.47;;;21.00;98.00;;;;;;5094630;28;20480;-68
2022/08/13 06:20:09;;;;;;;3.83;2.28;;;21.20;98.30;;;;;;5094604;28;20046;-68
2022/08/13 06:22:35;;;;;;;3.58;2.45;;;21.30;98.10;;;;;;5093887;28;20032;-68
2022/08/13 06:25:02;;;;;;;3.55;2.50;;;21.30;97.70;;;;;;5094177;28;20541;-68
2022/08/13 06:27:28;;;;;;;2.63;2.03;;;21.30;97.70;;;;;;5094727;28;20082;-69
2022/08/13 06:29:57;;;;;;;7.10;2.17;;;21.40;97.90;;;;;;5079083;28;20113;-69
2022/08/13 06:32:24;;;;;;;2.78;2.20;;;21.60;97.50;;;;;;5098147;28;20515;-69
2022/08/13 06:34:51;;;;;;;4.07;2.28;;;21.70;97.50;;;;;;5096752;28;20221;-69
2022/08/13 06:37:17;;;;;;;5.47;2.50;;;21.60;97.30;;;;;;5094010;28;20051;-69
2022/08/13 06:39:44;;;;;;;5.70;2.10;;;21.60;97.60;;;;;;5094589;28;20083;-69
2022/08/13 06:42:11;;;;;;;4.47;2.50;;;21.90;97.90;;;;;;5093589;28;20051;-68
2022/08/13 06:44:39;;;;;;;5.03;2.10;;;21.90;97.90;;;;;;5093554;28;20395;-68
2022/08/13 06:47:05;;;;;;;3.70;2.10;;;22.00;98.10;;;;;;5093247;28;20119;-71
2022/08/13 06:49:34;;;;;;;3.28;2.20;;;22.10;97.60;;;;;;5092298;28;20040;-71
2022/08/13 06:52:00;;;;;;;3.33;2.17;;;22.20;97.70;;;;;;5092803;28;20052;-70
2022/08/13 06:54:27;;;;;;;4.50;2.22;;;22.30;97.30;;;;;;5092646;28;20032;-71
2022/08/13 06:56:57;;;;;;;2.95;2.03;;;22.40;97.10;;;;;;5092840;28;20105;-71
2022/08/13 06:59:24;;;;;;;3.05;1.83;;;22.50;97.00;;;;;;5092062;28;20119;-71
2022/08/13 07:01:57;;;;;;;5.55;1.95;;;22.60;97.20;;;;;;5094601;28;20040;-71
2022/08/13 07:04:26;;;;;;;3.08;1.77;;;22.60;97.10;;;;;;5092487;28;20127;-71
2022/08/13 07:06:52;;;;;;;3.58;1.90;;;22.80;97.00;;;;;;5092720;28;20036;-70
2022/08/13 07:09:18;;;;;;;3.40;2.00;;;22.80;96.70;;;;;;5092621;28;20089;-71
2022/08/13 07:11:45;;;;;;;3.38;1.90;;;22.90;96.80;;;;;;5092425;28;20122;-71
2022/08/13 07:14:13;;;;;;;3.83;1.77;;;23.00;96.60;;;;;;5090601;28;20454;-71
2022/08/13 07:16:40;;;;;;;3.42;1.95;;;23.10;96.40;;;;;;5110460;28;20082;-70
2022/08/13 07:19:06;;;;;;;4.30;1.88;;;23.10;96.50;;;;;;5105529;28;20044;-71
2022/08/13 07:21:32;;;;;;;4.38;2.00;;;23.20;96.20;;;;;;5092031;28;20511;-71
2022/08/13 07:24:02;;;;;;;2.13;1.58;;;23.20;96.00;;;;;;5091886;28;20373;-70
2022/08/13 07:26:30;;;;;;;9.43;2.08;;;23.40;96.10;;;;;;5074002;28;20070;-70
2022/08/13 07:28:56;;;;;;;2.67;1.63;;;23.40;96.00;;;;;;5092238;28;20467;-70
2022/08/13 07:31:31;;;;;;;8.13;2.08;;;23.50;96.00;;;;;;5092010;28;20489;-71
2022/08/13 07:33:59;;;;;;;4.63;1.70;;;23.70;95.80;;;;;;5091461;28;20028;-71
2022/08/13 07:36:31;;;;;;;8.00;2.00;;;23.70;95.10;;;;;;5090512;28;20028;-71
2022/08/13 07:38:57;;;;;;;5.72;1.73;;;23.70;94.60;;;;;;5091822;28;20051;-70
2022/08/13 07:41:23;;;;;;;12.30;1.73;;;23.80;95.20;;;;;;5091788;28;20036;-71
2022/08/13 07:43:49;;;;;;;2.55;1.77;;;23.90;95.10;;;;;;5091277;28;20038;-70
2022/08/13 07:46:17;;;;;;;2.25;1.40;;;24.00;95.00;;;;;;5073013;28;20039;-69
2022/08/13 07:48:49;;;;;;;2.97;1.60;;;24.10;94.90;;;;;;5089580;28;20051;-67
2022/08/13 07:51:21;;;;;;;14.07;2.38;;;24.10;95.00;;;;;;5090938;28;20074;-71
2022/08/13 07:53:47;;;;;;;;;;;24.40;95.00;;;;;;5091539;28;20395;-75
2022/08/13 07:56:21;;;;;;;4.40;1.50;;;24.50;94.20;;;;;;5091421;28;20283;-74
2022/08/13 07:58:47;;;;;;;5.53;1.75;;;24.60;94.20;;;;;;5091715;28;20036;-73
2022/08/13 08:01:13;;;;;;;2.17;1.50;;;24.60;94.00;;;;;;5091675;28;20078;-74
2022/08/13 08:03:42;;;;;;;4.75;2.08;;;24.80;94.00;;;;;;5090861;28;20032;-74
2022/08/13 08:06:09;;;;;;;4.93;1.40;;;24.70;94.10;;;;;;5092465;28;20043;-74
2022/08/13 08:08:36;;;;;;;3.55;1.67;;;24.80;93.10;;;;;;5092659;28;20048;-74
2022/08/13 08:11:01;;;;;;;6.82;1.40;;;24.90;93.20;;;;;;5091037;28;20047;-74
2022/08/13 08:13:31;;;;;;;4.53;1.50;;;25.10;93.00;;;;;;5088958;28;20036;-74
2022/08/13 08:15:57;;;;;;;6.65;1.95;;;25.20;92.40;;;;;;5090892;28;20573;-74
2022/08/13 08:18:22;;;;;;;2.78;1.40;;;25.20;92.30;;;;;;5090811;28;20381;-73
2022/08/13 08:20:48;;;;;;;4.72;1.60;;;25.30;91.90;;;;;;5072530;28;20035;-73
2022/08/13 08:23:15;;;;;;;9.18;1.95;;;25.40;91.70;;;;;;5072908;28;20046;-73
2022/08/13 08:25:41;;;;;;;3.65;1.42;;;25.40;91.70;;;;;;5104956;28;20072;-72
2022/08/13 08:28:09;;;;;;;2.78;1.40;;;25.60;92.20;;;;;;5098356;28;20504;-73
2022/08/13 08:30:36;;;;;;;7.32;1.60;;;25.70;92.30;;;;;;5091185;28;20044;-73
2022/08/13 08:33:04;;;;;;;2.08;1.35;;;25.70;91.00;;;;;;5090457;28;20113;-73
2022/08/13 08:35:30;;;;;;;2.58;1.00;;;25.80;91.70;;;;;;5072049;28;20044;-75
2022/08/13 08:43:32;;;;;;;5.30;1.48;;;26.20;91.50;;;;;;5090399;28;20039;-74
2022/08/13 08:45:59;;;;;;;6.30;1.48;;;26.40;91.30;;;;;;5090620;28;20044;-74
2022/08/13 08:48:29;;;;;;;4.90;1.55;;;26.40;91.30;;;;;;5090556;28;20075;-74
2022/08/13 08:50:55;;;;;;;3.25;1.48;;;26.50;90.80;;;;;;5090256;28;20039;-74
2022/08/13 08:53:22;;;;;;;3.28;1.95;;;26.50;90.70;;;;;;5090219;28;20511;-73
2022/08/13 08:55:50;;;;;;;1.80;1.40;;;26.70;90.80;;;;;;5090478;28;20051;-73
2022/08/13 08:58:18;;;;;;;2.20;1.50;;;26.70;90.00;;;;;;5072566;28;20040;-73
2022/08/13 09:00:45;;;;;;;2.17;1.55;;;26.70;90.60;;;;;;5090513;28;20051;-73
2022/08/13 09:03:16;;;;;;;5.40;1.35;;;26.80;90.40;;;;;;5090288;28;20040;-73
2022/08/13 09:05:42;;;;;;;4.22;1.48;;;26.90;90.20;;;;;;5090175;28;20044;-74
2022/08/13 09:08:08;;;;;;;1.65;1.40;;;27.00;89.60;;;;;;5090442;28;20412;-74
2022/08/13 09:10:36;;;;;;;2.88;1.45;;;27.00;88.00;;;;;;5090217;28;20040;-74
2022/08/13 09:13:02;;;;;;;2.40;1.30;;;26.90;88.00;;;;;;5090346;28;20043;-74
2022/08/13 09:15:30;;;;;;;4.30;1.52;;;26.80;87.00;;;;;;5090222;28;20036;-74
2022/08/13 09:17:57;;;;;;;4.03;1.48;;;27.00;88.00;;;;;;5089936;28;20040;-74
2022/08/13 09:20:28;;;;;;;5.38;1.58;;;27.00;87.10;;;;;;5089850;28;20040;-74
2022/08/13 09:23:12;;;;;;;3.88;1.70;;;27.10;85.80;;;;;;5093127;28;20036;-74
2022/08/13 09:25:46;;;;;;;3.03;1.70;;;27.10;84.40;;;;;;5094598;28;20713;-74
2022/08/13 09:28:14;;;;;;;1.60;1.23;;;27.10;85.70;;;;;;5094337;28;20052;-74
2022/08/13 09:30:42;;;;;;;5.05;1.70;;;27.30;85.50;;;;;;5094216;28;20135;-74
2022/08/13 09:33:09;;;;;;;3.22;1.67;;;27.30;84.30;;;;;;5106613;28;20040;-74
2022/08/13 09:35:35;;;;;;;3.97;1.35;;;27.40;83.90;;;;;;5104830;28;20040;-74
2022/08/13 09:38:04;;;;;;;2.22;1.23;;;27.50;84.50;;;;;;5095014;28;20115;-74
2022/08/13 09:40:32;;;;;;;1.52;1.42;;;27.50;83.10;;;;;;5094391;28;20043;-74
2022/08/13 09:43:06;;;;;;;6.80;1.30;;;27.60;82.30;;;;;;5093480;28;20443;-74
2022/08/13 09:45:34;;;;;;;5.32;1.58;;;27.70;83.20;;;;;;5093819;28;20430;-74
2022/08/13 09:48:00;;;;;;;4.95;1.30;;;27.80;82.90;;;;;;5094149;28;20420;-74
2022/08/13 09:50:27;;;;;;;3.22;1.30;;;27.90;82.80;;;;;;5093999;28;20041;-74
2022/08/13 09:52:53;;;;;;;2.25;1.40;;;28.00;82.20;;;;;;5093692;28;20508;-74
2022/08/13 09:55:22;;;;;;;5.10;1.40;;;28.00;80.50;;;;;;5093529;28;20051;-74
2022/08/13 09:57:58;;;;;;;4.95;1.45;;;27.80;80.30;;;;;;5093923;28;20036;-74
2022/08/13 10:00:27;;;;;;;2.40;1.20;;;27.90;79.70;;;;;;5093660;28;20511;-74
2022/08/13 10:02:59;;;;;;;3.55;1.35;;;28.00;80.20;;;;;;5093699;28;20067;-74
2022/08/13 10:05:34;;;;;;;2.95;1.20;;;28.00;78.90;;;;;;5093701;28;20044;-74
2022/08/13 10:08:02;;;;;;;3.95;1.40;;;28.10;78.70;;;;;;5093974;28;20040;-74
2022/08/13 10:10:29;;;;;;;3.03;1.27;;;28.00;79.50;;;;;;5092027;28;20046;-73
2022/08/13 10:12:55;;;;;;;5.47;1.58;;;28.00;78.10;;;;;;5093620;28;20511;-73
2022/08/13 10:15:20;;;;;;;2.80;1.20;;;27.90;77.70;;;;;;5093272;28;20119;-75
2022/08/13 10:18:06;;;;;;;3.17;1.50;;;28.00;79.70;;;;;;5093194;28;20032;-74
2022/08/13 10:20:39;;;;;;;3.35;1.55;;;27.90;75.10;;;;;;5078506;28;20055;-74
2022/08/13 10:23:08;;;;;;;4.85;1.52;;;28.10;76.70;;;;;;5052862;28;20076;-73
2022/08/13 10:25:34;;;;;;;3.00;1.35;;;28.20;77.30;;;;;;5052832;28;20047;-73
2022/08/13 10:28:00;;;;;;;2.38;1.42;;;28.10;75.60;;;;;;5052900;28;20493;-73
2022/08/13 10:30:27;;;;;;;2.10;1.55;;;28.30;76.00;;;;;;5051564;28;20103;-73
2022/08/13 10:32:55;;;;;;;3.03;1.15;;;28.30;75.90;;;;;;5051704;28;20072;-73
2022/08/13 10:35:27;;;;;;;4.35;1.50;;;28.50;75.30;;;;;;5052724;28;20116;-73
2022/08/13 10:37:54;;;;;;;4.78;1.42;;;28.60;75.60;;;;;;5052826;28;20045;-73
2022/08/13 10:40:22;;;;;;;6.90;1.45;;;28.60;76.50;;;;;;5058512;28;20044;-73
2022/08/13 10:42:48;;;;;;;85.63;7.97;;;28.70;75.00;;;;;;5073172;28;20037;-73
2022/08/13 10:45:14;;;;;;;4.03;1.40;;;28.60;75.10;;;;;;5056752;28;20033;-73
2022/08/13 10:47:47;;;;;;;5.20;1.42;;;28.50;74.50;;;;;;5053008;28;20068;-73
2022/08/13 10:50:17;;;;;;;4.30;1.38;;;28.60;75.10;;;;;;5053202;28;20044;-72
2022/08/13 10:52:43;;;;;;;5.85;1.42;;;28.70;74.90;;;;;;5052604;28;20390;-73
2022/08/13 10:55:11;;;;;;;2.75;1.30;;;28.70;74.50;;;;;;5052860;28;20036;-73
2022/08/13 11:23:27;;;;;;;7.13;1.67;;;29.30;69.80;;;;;;5050606;28;20040;-73
2022/08/13 11:25:52;;;;;;;1.77;1.38;;;29.30;71.80;;;;;;5051212;28;20112;-73
2022/08/13 11:28:18;;;;;;;2.15;1.40;;;29.20;71.40;;;;;;5050247;28;20132;-72
2022/08/13 11:30:43;;;;;;;1.48;1.30;;;29.40;70.50;;;;;;5051449;28;20041;-73
2022/08/13 11:33:09;;;;;;;1.63;1.40;;;29.40;70.40;;;;;;5051233;28;20462;-74
2022/08/13 11:35:35;;;;;;;2.35;1.45;;;29.50;71.70;;;;;;5051401;28;20037;-72
2022/08/13 11:38:07;;;;;;;4.18;1.30;;;29.60;70.10;;;;;;5051375;28;20048;-73
2022/08/13 11:40:34;;;;;;;2.58;1.23;;;29.40;69.10;;;;;;5051574;28;20043;-73
2022/08/13 11:43:00;;;;;;;6.25;1.30;;;29.30;68.50;;;;;;5051144;28;20100;-73
2022/08/13 11:45:26;;;;;;;6.18;1.13;;;29.40;68.70;;;;;;5050754;28;20033;-73
2022/08/13 11:47:51;;;;;;;9.05;1.63;;;29.40;68.20;;;;;;5051103;28;20064;-73
2022/08/13 11:50:17;;;;;;;3.13;1.52;;;29.40;68.30;;;;;;5065857;28;20040;-72
2022/08/13 11:52:42;;;;;;;2.25;1.40;;;29.50;69.60;;;;;;5060526;28;20032;-73
2022/08/13 11:55:08;;;;;;;2.80;1.20;;;29.50;68.50;;;;;;5049751;28;20041;-73
2022/08/13 11:57:34;;;;;;;2.80;1.30;;;29.50;68.70;;;;;;5051142;28;20143;-73
2022/08/13 11:59:59;;;;;;;2.85;1.23;;;29.60;67.70;;;;;;5032707;28;20051;-73
2022/08/13 12:02:25;;;;;;;2.25;1.15;;;29.60;67.80;;;;;;5050476;28;20502;-73
2022/08/13 12:04:51;;;;;;;5.28;1.30;;;29.70;68.30;;;;;;5050930;28;20116;-73
2022/08/13 12:07:16;;;;;;;2.17;1.30;;;29.70;67.30;;;;;;5050825;28;20037;-74
2022/08/13 12:09:42;;;;;;;3.78;1.40;;;29.60;66.60;;;;;;5050705;28;20072;-73
2022/08/13 12:12:08;;;;;;;3.33;1.42;;;29.70;66.30;;;;;;5050630;28;20448;-73
2022/08/13 12:14:33;;;;;;;2.10;1.40;;;29.60;66.30;;;;;;5050256;28;20079;-73
2022/08/13 12:16:59;;;;;;;2.25;1.40;;;29.60;66.20;;;;;;5050247;28;20116;-73
2022/08/13 12:19:25;;;;;;;2.15;1.08;;;29.70;65.90;;;;;;5048808;28;20045;-73
2022/08/13 12:21:50;;;;;;;4.20;1.20;;;29.70;67.30;;;;;;5050299;28;20528;-73
2022/08/13 12:24:16;;;;;;;2.22;1.42;;;29.90;67.60;;;;;;5049753;28;20469;-74
2022/08/13 12:26:42;;;;;;;3.25;1.38;;;30.00;66.10;;;;;;5050149;28;20444;-73
2022/08/13 12:29:07;;;;;;;1.83;1.35;;;30.00;67.40;;;;;;5050003;28;20037;-73
2022/08/13 12:31:33;;;;;;;1.70;1.40;;;30.00;67.30;;;;;;5049968;28;20071;-74
2022/08/13 12:33:58;;;;;;;2.05;1.27;;;30.10;67.10;;;;;;5049712;28;20198;-73
2022/08/13 12:36:24;;;;;;;3.40;1.50;;;30.10;68.00;;;;;;5050131;28;20037;-73
2022/08/13 12:38:49;;;;;;;3.33;1.60;;;30.10;68.90;;;;;;5049904;28;20091;-73
2022/08/13 12:41:15;;;;;;;2.42;1.40;;;30.30;67.40;;;;;;5049864;28;20047;-73
2022/08/13 12:43:40;;;;;;;4.00;1.60;;;30.00;67.00;;;;;;5049521;28;20086;-73
2022/08/13 12:46:06;;;;;;;1.75;1.25;;;30.00;67.30;;;;;;5049836;28;20090;-73
2022/08/13 12:48:31;;;;;;;2.67;1.73;;;30.00;67.20;;;;;;5049886;28;20077;-74
2022/08/13 12:50:57;;;;;;;4.00;1.67;;;30.00;68.20;;;;;;5049674;28;20722;-73
2022/08/13 12:53:23;;;;;;;1.67;1.58;;;29.90;68.10;;;;;;5049314;28;20033;-75
2022/08/13 12:55:49;;;;;;;4.07;1.50;;;29.70;67.20;;;;;;5048961;28;20098;-73
2022/08/13 12:58:20;;;;;;;5.00;1.70;;;29.60;66.60;;;;;;5058366;28;20096;-73
2022/08/13 13:00:47;;;;;;;4.38;1.58;;;29.60;66.80;;;;;;5064491;28;20041;-74
2022/08/13 13:03:14;;;;;;;6.13;1.60;;;29.70;67.70;;;;;;5049627;28;20032;-73
2022/08/13 13:05:46;;;;;;;1.77;1.48;;;29.90;67.20;;;;;;5049500;28;20509;-74
2022/08/13 13:08:26;;;;;;;3.85;1.52;;;29.80;65.60;;;;;;5049679;28;20075;-74
2022/08/13 13:10:53;;;;;;;4.05;1.60;;;29.80;64.50;;;;;;5049482;28;20044;-73
2022/08/13 13:13:21;;;;;;;1.73;1.63;;;30.00;65.50;;;;;;5049281;28;20492;-74
2022/08/13 13:15:46;;;;;;;3.30;1.42;;;30.00;65.40;;;;;;5055795;28;20052;-72
2022/08/13 13:18:17;;;;;;;3.83;1.90;;;29.90;64.00;;;;;;5049587;28;20451;-74
2022/08/13 13:20:45;;;;;;;2.43;1.80;;;30.00;65.90;;;;;;5049051;28;20057;-73
2022/08/13 13:23:14;;;;;;;6.32;1.85;;;30.00;65.50;;;;;;5049312;28;20286;-73
2022/08/13 13:25:43;;;;;;;3.30;1.80;;;30.00;64.50;;;;;;5049544;28;20420;-73
2022/08/13 13:28:11;;;;;;;6.13;2.05;;;29.90;65.90;;;;;;5048443;28;20041;-73
2022/08/13 13:30:37;;;;;;;3.78;1.60;;;30.10;65.60;;;;;;5049592;28;20048;-73
2022/08/13 13:33:04;;;;;;;2.40;1.80;;;30.20;66.50;;;;;;5047622;28;20091;-74
2022/08/13 13:35:33;;;;;;;5.60;1.40;;;30.20;66.30;;;;;;5049610;28;20041;-74
2022/08/13 13:37:59;;;;;;;4.90;1.55;;;30.30;66.00;;;;;;5049581;28;20099;-73